Time;durP1;ratioP1;P1;durP2;ratioP2;P2;SDS_P1;SDS_P2;PMS_P1;PMS_P2;Temp;Humidity;BMP_temperature;BMP_pressure;BME280_temperature;BME280_humidity;BME280_pressure;Samples;Min_cycle;Max_cycle;Signal;HPM_P1;HPM_P2
2022/11/15 00:01:15;;;;;;;12.47;9.93;;;10.10;99.90;;;;;;5045502;28;21038;-55
2022/11/15 00:03:42;;;;;;;13.70;10.40;;;10.20;99.90;;;;;;5038699;28;20484;-53
2022/11/15 00:06:11;;;;;;;12.50;9.93;;;10.20;99.90;;;;;;5037567;28;20507;-55
2022/11/15 00:08:40;;;;;;;12.67;11.37;;;10.20;99.90;;;;;;5038221;28;20834;-55
2022/11/15 00:11:07;;;;;;;12.83;10.47;;;10.20;1.00;;;;;;5044837;28;20494;-58
2022/11/15 00:13:34;;;;;;;11.30;9.63;;;10.30;1.00;;;;;;5058003;28;20462;-58
2022/11/15 00:16:02;;;;;;;10.27;9.10;;;10.30;1.00;;;;;;5057607;28;20441;-58
2022/11/15 00:18:30;;;;;;;15.03;10.00;;;10.30;99.90;;;;;;5057844;28;20441;-57
2022/11/15 00:21:04;;;;;;;11.27;9.53;;;10.40;99.90;;;;;;5055471;28;20561;-57
2022/11/15 00:23:33;;;;;;;13.00;10.90;;;10.40;99.90;;;;;;5038053;28;20770;-56
2022/11/15 00:26:02;;;;;;;11.73;10.10;;;10.40;99.90;;;;;;5037765;28;20504;-58
2022/11/15 00:28:29;;;;;;;11.10;9.37;;;10.40;99.90;;;;;;5038072;28;20464;-58
2022/11/15 00:31:05;;;;;;;11.60;9.53;;;10.50;99.90;;;;;;5037475;28;20463;-53
2022/11/15 00:33:35;;;;;;;13.87;9.93;;;10.50;3.80;;;;;;5057308;28;20465;-57
2022/11/15 00:36:04;;;;;;;11.30;10.17;;;10.50;1.00;;;;;;5052348;28;20553;-55
2022/11/15 00:38:40;;;;;;;11.40;9.53;;;10.50;1.00;;;;;;5038013;28;20486;-56
2022/11/15 00:41:08;;;;;;;18.93;13.00;;;10.60;1.00;;;;;;5037983;28;20557;-58
2022/11/15 00:43:39;;;;;;;11.50;10.30;;;10.60;1.00;;;;;;5053135;28;20441;-58
2022/11/15 00:46:08;;;;;;;12.93;10.33;;;10.60;1.00;;;;;;5056877;28;20466;-55
2022/11/15 00:48:38;;;;;;;14.00;10.63;;;10.60;1.00;;;;;;5057340;28;20472;-58
2022/11/15 00:51:06;;;;;;;11.20;9.10;;;10.70;1.00;;;;;;5053819;28;20469;-57
2022/11/15 00:53:33;;;;;;;12.57;10.80;;;10.70;1.00;;;;;;5057381;28;20561;-58
2022/11/15 00:56:01;;;;;;;11.80;10.60;;;10.70;1.00;;;;;;5056786;28;20930;-56
2022/11/15 00:58:29;;;;;;;13.53;9.53;;;10.70;1.00;;;;;;5057422;28;20561;-58
2022/11/15 01:01:05;;;;;;;12.40;9.90;;;10.70;1.00;;;;;;5050285;28;20717;-56
2022/11/15 01:03:33;;;;;;;11.97;9.90;;;10.80;1.00;;;;;;5037329;28;20467;-55
2022/11/15 01:06:01;;;;;;;12.40;9.40;;;10.80;1.00;;;;;;5037212;28;20466;-58
2022/11/15 01:08:28;;;;;;;10.70;9.60;;;10.80;1.00;;;;;;5037177;28;20892;-54
2022/11/15 01:11:03;;;;;;;11.43;10.03;;;10.90;1.00;;;;;;5038884;28;21000;-58
2022/11/15 01:13:36;;;;;;;12.73;10.20;;;10.90;1.00;;;;;;5055768;28;20458;-58
2022/11/15 01:16:08;;;;;;;12.77;10.40;;;10.90;1.00;;;;;;5056632;28;20589;-58
2022/11/15 01:18:35;;;;;;;11.70;10.03;;;10.90;1.00;;;;;;5057219;28;20967;-58
2022/11/15 01:21:06;;;;;;;11.97;10.03;;;11.00;1.00;;;;;;5055940;28;20771;-56
2022/11/15 01:23:36;;;;;;;14.73;9.53;;;11.00;99.90;;;;;;5036894;28;20470;-56
2022/11/15 01:26:07;;;;;;;12.00;10.33;;;11.00;99.90;;;;;;5036847;28;20537;-58
2022/11/15 01:28:38;;;;;;;13.30;9.43;;;11.10;99.90;;;;;;5037326;28;20463;-58
2022/11/15 01:31:07;;;;;;;12.90;10.27;;;11.00;99.90;;;;;;5036762;28;20478;-56
2022/11/15 01:33:36;;;;;;;14.60;10.40;;;11.10;99.90;;;;;;5053231;28;20462;-56
2022/11/15 01:36:05;;;;;;;13.07;11.00;;;11.10;97.80;;;;;;5056187;28;20494;-59
2022/11/15 01:38:33;;;;;;;11.47;9.57;;;11.20;81.40;;;;;;5057303;28;20775;-59
2022/11/15 01:41:00;;;;;;;11.87;9.70;;;11.20;15.70;;;;;;5057624;28;20816;-58
2022/11/15 01:43:32;;;;;;;12.13;9.50;;;11.20;7.00;;;;;;5043938;28;20529;-56
2022/11/15 01:46:07;;;;;;;13.23;10.33;;;11.20;1.00;;;;;;5036695;28;20801;-56
2022/11/15 01:48:36;;;;;;;11.23;10.10;;;11.20;1.00;;;;;;5036996;28;20467;-56
2022/11/15 01:51:11;;;;;;;15.00;10.77;;;11.20;1.00;;;;;;5037114;28;20880;-58
2022/11/15 01:53:41;;;;;;;11.87;10.17;;;11.20;1.00;;;;;;5046909;28;20473;-58
2022/11/15 01:56:12;;;;;;;15.50;10.43;;;11.30;1.00;;;;;;5056747;28;20583;-58
2022/11/15 01:58:42;;;;;;;12.67;9.50;;;11.30;1.00;;;;;;5056228;28;20519;-55
2022/11/15 02:01:13;;;;;;;13.60;10.00;;;11.30;1.00;;;;;;5057050;28;20824;-59
2022/11/15 02:03:47;;;;;;;11.67;9.70;;;11.30;1.00;;;;;;5048938;28;20554;-58
2022/11/15 02:06:15;;;;;;;11.37;10.27;;;11.30;1.00;;;;;;5037311;28;20462;-55
2022/11/15 02:08:43;;;;;;;13.10;10.97;;;11.30;1.00;;;;;;5040064;28;20462;-57
2022/11/15 02:11:10;;;;;;;10.03;9.03;;;11.30;1.00;;;;;;5040990;28;20437;-58
2022/11/15 02:13:38;;;;;;;10.70;9.60;;;11.30;1.00;;;;;;5043530;28;20484;-59
2022/11/15 02:16:24;;;;;;;15.43;11.33;;;11.30;1.00;;;;;;5059720;28;20491;-57
2022/11/15 02:18:58;;;;;;;11.30;9.57;;;11.30;1.00;;;;;;5060414;28;20461;-56
2022/11/15 02:21:34;;;;;;;11.87;10.27;;;11.30;1.00;;;;;;5060474;28;20462;-56
2022/11/15 02:24:38;;;;;;;12.67;9.70;;;11.30;1.00;;;;;;5057427;28;20477;-57
2022/11/15 02:27:35;;;;;;;14.70;9.30;;;11.30;1.00;;;;;;5014410;28;20470;-59
2022/11/15 02:30:24;;;;;;;11.90;10.70;;;11.30;1.00;;;;;;5044705;28;20466;-60
2022/11/15 02:32:56;;;;;;;13.90;11.70;;;11.30;1.00;;;;;;5059332;28;20466;-59
2022/11/15 02:35:34;;;;;;;13.77;10.97;;;11.30;1.00;;;;;;5059145;28;20764;-57
2022/11/15 02:38:08;;;;;;;11.80;10.53;;;11.30;1.00;;;;;;5045437;28;20883;-57
2022/11/15 02:40:47;;;;;;;13.10;11.17;;;11.30;1.00;;;;;;5039993;28;20461;-60
2022/11/15 02:46:16;;;;;;;12.10;10.33;;;11.30;1.00;;;;;;5050448;28;20441;-58
2022/11/15 02:48:48;;;;;;;12.43;10.27;;;11.30;1.00;;;;;;5059071;28;20458;-58
2022/11/15 02:51:18;;;;;;;12.40;10.47;;;11.40;44.70;;;;;;5059288;28;20767;-57
2022/11/15 02:53:45;;;;;;;12.67;9.93;;;11.40;30.50;;;;;;5059961;28;20465;-57
2022/11/15 02:56:13;;;;;;;15.10;10.80;;;11.40;46.10;;;;;;5050592;28;20487;-54
2022/11/15 02:59:14;;;;;;;14.07;11.40;;;11.40;46.10;;;;;;5039906;28;20879;-59
2022/11/15 03:02:01;;;;;;;12.00;10.03;;;11.50;82.10;;;;;;5040401;28;20549;-59
2022/11/15 03:04:38;;;;;;;10.60;9.50;;;11.50;16.90;;;;;;5039417;28;20561;-60
2022/11/15 03:07:13;;;;;;;13.87;9.67;;;11.50;4.60;;;;;;5039407;28;20593;-60
2022/11/15 03:09:46;;;;;;;12.50;9.70;;;11.50;38.10;;;;;;5039644;28;20459;-60
2022/11/15 03:12:17;;;;;;;12.43;11.13;;;11.60;1.00;;;;;;5043302;28;20429;-60
2022/11/15 03:14:53;;;;;;;11.90;9.50;;;11.60;1.00;;;;;;5052010;28;20465;-56
2022/11/15 03:17:29;;;;;;;12.50;9.43;;;11.60;1.00;;;;;;5038761;28;20463;-57
2022/11/15 03:19:59;;;;;;;10.87;9.77;;;11.60;1.00;;;;;;5038691;28;20516;-59
2022/11/15 03:22:31;;;;;;;12.83;9.20;;;11.60;1.00;;;;;;5038930;28;20502;-54
2022/11/15 03:25:03;;;;;;;13.73;10.27;;;11.60;1.00;;;;;;5042559;28;20466;-57
2022/11/15 03:27:36;;;;;;;10.70;8.77;;;11.60;1.00;;;;;;5059402;28;20461;-57
2022/11/15 03:30:07;;;;;;;11.33;10.13;;;11.60;1.00;;;;;;5058260;28;20927;-59
2022/11/15 03:32:41;;;;;;;12.60;10.07;;;11.70;1.00;;;;;;5058413;28;20556;-57
2022/11/15 03:35:14;;;;;;;10.80;9.70;;;11.70;1.00;;;;;;5057483;28;20579;-59
2022/11/15 03:37:49;;;;;;;10.17;9.07;;;11.70;1.00;;;;;;5058222;28;20925;-59
2022/11/15 03:40:18;;;;;;;11.97;10.30;;;11.70;1.00;;;;;;5058932;28;20462;-59
2022/11/15 03:42:52;;;;;;;10.43;9.20;;;11.70;1.00;;;;;;5058669;28;20735;-59
2022/11/15 03:45:25;;;;;;;10.70;9.33;;;11.70;1.00;;;;;;5058900;28;20468;-60
2022/11/15 03:47:59;;;;;;;10.17;8.90;;;11.60;1.00;;;;;;5038788;28;20465;-60
2022/11/15 03:50:27;;;;;;;11.30;9.47;;;11.70;1.00;;;;;;5038447;28;20466;-60
2022/11/15 03:52:56;;;;;;;11.13;9.10;;;11.70;1.00;;;;;;5038405;28;20499;-57
2022/11/15 03:55:23;;;;;;;9.43;8.00;;;11.70;1.00;;;;;;5037900;28;20491;-60
2022/11/15 03:57:53;;;;;;;11.13;8.60;;;11.70;1.00;;;;;;5054542;28;20780;-60
2022/11/15 04:00:21;;;;;;;11.00;8.67;;;11.70;1.00;;;;;;5057005;28;20466;-58
2022/11/15 04:02:48;;;;;;;13.43;9.30;;;11.70;1.00;;;;;;5056709;28;20440;-57
2022/11/15 04:05:20;;;;;;;13.10;8.30;;;11.70;1.00;;;;;;5057846;28;20524;-57
2022/11/15 04:07:47;;;;;;;10.73;7.37;;;11.70;1.00;;;;;;5046041;28;20471;-58
2022/11/15 04:10:17;;;;;;;11.50;8.67;;;11.70;1.00;;;;;;5037389;28;20502;-59
2022/11/15 04:12:47;;;;;;;9.80;8.83;;;11.70;1.00;;;;;;5036849;28;20464;-58
2022/11/15 04:15:16;;;;;;;9.47;8.43;;;11.70;1.00;;;;;;5037917;28;20581;-60
2022/11/15 04:17:46;;;;;;;8.57;7.77;;;11.70;1.00;;;;;;5044458;28;20541;-59
2022/11/15 04:25:53;;;;;;;10.00;7.80;;;11.80;1.00;;;;;;5057915;28;20476;-61
2022/11/15 04:28:20;;;;;;;10.63;8.60;;;11.80;1.00;;;;;;5049931;28;20485;-60
2022/11/15 04:30:47;;;;;;;11.13;9.33;;;11.80;99.90;;;;;;5047492;28;20473;-60
2022/11/15 04:33:17;;;;;;;12.20;9.23;;;11.80;99.90;;;;;;5058103;28;20462;-60
2022/11/15 04:38:33;;;;;;;10.30;9.30;;;11.90;99.90;;;;;;5056664;28;20443;-60
2022/11/15 04:41:01;;;;;;;11.10;10.00;;;11.80;99.90;;;;;;5048720;28;20554;-60
2022/11/15 04:43:31;;;;;;;12.17;10.77;;;11.80;99.90;;;;;;5037479;28;20459;-57
2022/11/15 04:45:58;;;;;;;9.93;8.93;;;11.80;1.00;;;;;;5037392;28;20795;-56
2022/11/15 04:48:25;;;;;;;10.83;9.50;;;11.80;1.00;;;;;;5037715;28;20455;-61
2022/11/15 04:50:54;;;;;;;12.30;10.37;;;11.80;1.00;;;;;;5040707;28;20436;-60
2022/11/15 04:53:21;;;;;;;11.77;10.67;;;11.80;1.00;;;;;;5057616;28;20464;-60
2022/11/15 04:55:51;;;;;;;11.40;10.20;;;11.80;1.00;;;;;;5049870;28;20487;-60
2022/11/15 04:58:18;;;;;;;10.10;9.10;;;11.80;1.00;;;;;;5037674;28;20463;-58
2022/11/15 05:00:49;;;;;;;11.30;10.07;;;11.80;1.00;;;;;;5037261;28;20557;-60
2022/11/15 05:06:03;;;;;;;9.77;8.77;;;11.80;1.00;;;;;;5056157;28;20496;-59
2022/11/15 05:08:30;;;;;;;11.17;9.80;;;11.80;1.00;;;;;;5057046;28;20469;-61
2022/11/15 05:10:57;;;;;;;11.10;9.30;;;11.80;1.00;;;;;;5057379;28;20458;-59
2022/11/15 05:13:25;;;;;;;10.43;8.70;;;11.90;1.00;;;;;;5039783;28;20467;-61
2022/11/15 05:15:52;;;;;;;9.40;8.40;;;11.90;1.00;;;;;;5038565;28;20499;-61
2022/11/15 05:18:25;;;;;;;10.83;9.20;;;11.90;99.90;;;;;;5037332;28;20459;-60
2022/11/15 05:20:52;;;;;;;10.17;9.17;;;11.90;99.90;;;;;;5037356;28;20562;-61
2022/11/15 05:23:21;;;;;;;9.00;8.10;;;11.90;99.90;;;;;;5049130;28;20466;-60
2022/11/15 05:25:48;;;;;;;11.37;9.30;;;11.90;99.90;;;;;;5056799;28;20455;-60
2022/11/15 05:28:15;;;;;;;10.70;9.20;;;11.90;99.90;;;;;;5057350;28;20472;-59
2022/11/15 05:30:42;;;;;;;9.80;8.80;;;11.90;99.90;;;;;;5057111;28;20925;-60
2022/11/15 05:33:10;;;;;;;8.80;7.90;;;11.90;99.90;;;;;;5049235;28;20553;-60
2022/11/15 05:35:43;;;;;;;9.30;8.40;;;11.90;99.90;;;;;;5037179;28;20578;-61
2022/11/15 05:38:10;;;;;;;9.63;8.63;;;11.90;99.90;;;;;;5036332;28;20906;-61
2022/11/15 05:40:39;;;;;;;9.20;8.00;;;11.90;99.90;;;;;;5037606;28;20469;-59
2022/11/15 05:43:07;;;;;;;8.73;7.80;;;11.90;99.90;;;;;;5044401;28;20433;-60
2022/11/15 05:45:37;;;;;;;9.93;8.43;;;11.90;99.90;;;;;;5060472;28;20462;-59
2022/11/15 05:48:08;;;;;;;13.00;8.80;;;11.90;99.90;;;;;;5053903;28;20468;-60
2022/11/15 05:50:37;;;;;;;7.93;7.13;;;11.90;99.90;;;;;;5061104;28;20545;-61
2022/11/15 05:53:04;;;;;;;8.23;7.43;;;11.90;99.90;;;;;;5060706;28;20516;-60
2022/11/15 05:55:34;;;;;;;8.87;7.47;;;11.90;99.90;;;;;;5060156;28;20489;-59
2022/11/15 05:58:03;;;;;;;8.70;7.53;;;11.90;99.90;;;;;;5060681;28;20463;-59
2022/11/15 06:00:31;;;;;;;9.00;7.73;;;11.90;99.90;;;;;;5061001;28;20525;-60
2022/11/15 06:03:01;;;;;;;8.03;7.23;;;11.90;99.90;;;;;;5060725;28;20733;-57
2022/11/15 06:05:30;;;;;;;10.70;8.30;;;11.90;99.90;;;;;;5044306;28;20503;-60
2022/11/15 06:07:59;;;;;;;9.60;7.90;;;12.00;99.90;;;;;;5040858;28;20490;-60
2022/11/15 06:10:26;;;;;;;8.53;7.73;;;11.90;99.90;;;;;;5060270;28;20735;-60
2022/11/15 06:12:58;;;;;;;7.67;6.90;;;11.90;99.90;;;;;;5060716;28;20461;-59
2022/11/15 06:15:27;;;;;;;7.30;6.57;;;11.90;99.90;;;;;;5059364;28;20464;-61
2022/11/15 06:17:58;;;;;;;6.63;5.97;;;11.90;99.90;;;;;;5060365;28;20480;-59
2022/11/15 06:20:25;;;;;;;8.20;6.20;;;12.00;99.90;;;;;;5042388;28;20466;-60
2022/11/15 06:22:57;;;;;;;9.33;6.80;;;11.90;99.90;;;;;;5040908;28;20463;-61
2022/11/15 06:25:24;;;;;;;7.40;6.47;;;12.00;99.90;;;;;;5039106;28;20914;-60
2022/11/15 06:27:53;;;;;;;6.93;6.33;;;12.00;99.90;;;;;;5039456;28;20470;-61
2022/11/15 06:30:20;;;;;;;7.03;6.00;;;11.90;99.90;;;;;;5043563;28;20463;-61
2022/11/15 06:32:50;;;;;;;6.63;5.93;;;11.90;99.90;;;;;;5038861;28;20477;-61
2022/11/15 06:35:18;;;;;;;6.97;6.17;;;11.90;99.90;;;;;;5039733;28;20570;-61
2022/11/15 06:37:48;;;;;;;7.90;6.70;;;11.90;99.90;;;;;;5040347;28;20958;-63
2022/11/15 06:40:16;;;;;;;7.70;6.00;;;11.90;99.90;;;;;;5041977;28;20549;-63
2022/11/15 06:42:43;;;;;;;9.80;6.77;;;11.90;99.90;;;;;;5060765;28;20534;-62
2022/11/15 06:45:13;;;;;;;6.63;6.03;;;11.90;99.90;;;;;;5059851;28;20472;-62
2022/11/15 06:47:46;;;;;;;6.37;5.53;;;11.80;99.90;;;;;;5060745;28;20433;-62
2022/11/15 06:50:18;;;;;;;5.63;5.13;;;11.80;99.90;;;;;;5060204;28;20469;-62
2022/11/15 06:52:45;;;;;;;5.83;5.17;;;11.80;99.90;;;;;;5039443;28;20472;-61
2022/11/15 06:55:12;;;;;;;6.03;4.97;;;11.80;99.90;;;;;;5049192;28;20778;-62
2022/11/15 06:57:48;;;;;;;5.90;5.17;;;11.70;99.90;;;;;;5059837;28;20490;-63
2022/11/15 07:00:17;;;;;;;5.13;4.63;;;11.60;99.90;;;;;;5059532;28;20464;-62
2022/11/15 07:02:44;;;;;;;8.30;6.83;;;11.60;99.90;;;;;;5060675;28;20458;-63
2022/11/15 07:05:12;;;;;;;5.80;5.30;;;11.50;99.90;;;;;;5068186;28;20460;-63
2022/11/15 07:07:41;;;;;;;6.60;4.60;;;11.50;99.90;;;;;;5057541;28;20429;-63
2022/11/15 07:10:09;;;;;;;6.20;5.27;;;11.40;99.90;;;;;;5057617;28;20671;-62
2022/11/15 07:12:36;;;;;;;6.20;5.70;;;11.40;99.90;;;;;;5057314;28;20907;-62
2022/11/15 07:15:07;;;;;;;7.30;6.50;;;11.40;99.90;;;;;;5077772;28;20468;-62
2022/11/15 07:17:34;;;;;;;6.47;5.87;;;11.30;99.90;;;;;;5047542;28;20493;-63
2022/11/15 07:20:01;;;;;;;6.50;5.90;;;11.30;99.90;;;;;;5040580;28;20445;-59
2022/11/15 07:22:29;;;;;;;6.10;5.47;;;11.30;99.90;;;;;;5064158;28;20462;-62
2022/11/15 07:25:00;;;;;;;7.13;5.10;;;11.30;99.90;;;;;;5057579;28;20553;-62
2022/11/15 07:27:29;;;;;;;6.27;5.50;;;11.30;99.90;;;;;;5057459;28;20458;-62
2022/11/15 07:29:56;;;;;;;5.73;5.10;;;11.30;99.90;;;;;;5057334;28;20458;-62
2022/11/15 07:32:23;;;;;;;6.20;5.23;;;11.20;99.90;;;;;;5057644;28;20866;-63
2022/11/15 07:34:50;;;;;;;7.00;5.63;;;11.20;99.90;;;;;;5038845;28;20902;-62
2022/11/15 07:37:20;;;;;;;4.63;4.23;;;11.20;99.90;;;;;;5038343;28;20497;-62
2022/11/15 07:39:48;;;;;;;5.20;4.70;;;11.20;99.90;;;;;;5050283;28;20429;-62
2022/11/15 07:45:04;;;;;;;6.03;4.73;;;11.20;99.90;;;;;;5058101;28;20476;-64
2022/11/15 07:47:33;;;;;;;4.97;4.47;;;11.20;99.90;;;;;;5058622;28;20540;-62
2022/11/15 07:50:00;;;;;;;6.80;4.00;;;11.20;99.90;;;;;;5060898;28;20454;-62
2022/11/15 07:52:27;;;;;;;5.57;4.70;;;11.30;99.90;;;;;;5068742;28;20453;-61
2022/11/15 07:54:56;;;;;;;6.83;4.30;;;11.30;99.90;;;;;;5060819;28;20497;-62
2022/11/15 07:57:26;;;;;;;7.87;4.83;;;11.40;99.90;;;;;;5063057;28;20536;-62
2022/11/15 07:59:53;;;;;;;4.63;4.07;;;11.40;98.80;;;;;;5066523;28;20457;-62
2022/11/15 08:02:23;;;;;;;5.20;4.20;;;11.50;96.10;;;;;;5068420;28;21299;-62
2022/11/15 08:04:50;;;;;;;4.33;3.80;;;11.60;55.80;;;;;;5063639;28;20462;-62
2022/11/15 08:07:23;;;;;;;4.90;4.50;;;11.80;5.10;;;;;;5066536;28;20816;-62
2022/11/15 08:09:50;;;;;;;4.60;4.10;;;11.90;1.00;;;;;;5064799;28;20540;-63
2022/11/15 08:12:17;;;;;;;4.50;3.90;;;12.00;1.00;;;;;;5066681;28;20803;-62
2022/11/15 08:14:46;;;;;;;4.43;4.03;;;12.00;1.00;;;;;;5057906;28;20465;-62
2022/11/15 08:17:13;;;;;;;5.30;4.50;;;11.90;1.00;;;;;;5058072;28;20938;-62
2022/11/15 08:19:43;;;;;;;5.10;4.33;;;11.90;1.00;;;;;;5064593;28;20459;-62
2022/11/15 08:22:20;;;;;;;4.90;3.70;;;12.00;1.00;;;;;;5070612;28;20469;-62
2022/11/15 08:24:48;;;;;;;5.00;3.27;;;12.10;1.00;;;;;;5055935;28;20465;-62
2022/11/15 08:27:16;;;;;;;3.77;3.40;;;12.20;1.00;;;;;;5057321;28;20505;-62
2022/11/15 08:29:44;;;;;;;8.33;4.03;;;12.30;1.00;;;;;;5057544;28;20746;-62
2022/11/15 08:32:15;;;;;;;5.93;3.47;;;12.30;1.00;;;;;;5057723;28;20470;-62
2022/11/15 08:34:42;;;;;;;5.13;3.40;;;12.30;1.00;;;;;;5058216;28;20483;-62
2022/11/15 08:37:09;;;;;;;4.50;3.60;;;12.30;1.00;;;;;;5043983;28;20590;-62
2022/11/15 08:39:37;;;;;;;6.10;3.30;;;12.30;1.00;;;;;;5057622;28;20473;-62
2022/11/15 08:42:05;;;;;;;5.63;3.10;;;12.40;1.00;;;;;;5058881;28;20561;-62
2022/11/15 08:44:32;;;;;;;4.30;3.67;;;12.40;1.00;;;;;;5058363;28;20548;-62
2022/11/15 08:46:59;;;;;;;4.60;3.30;;;12.50;1.00;;;;;;5066343;28;20752;-61
2022/11/15 08:49:28;;;;;;;5.43;3.67;;;12.60;1.00;;;;;;5047578;28;20460;-62
2022/11/15 08:51:57;;;;;;;4.10;3.40;;;12.70;1.00;;;;;;5038518;28;20769;-62
2022/11/15 08:54:24;;;;;;;4.67;3.23;;;12.60;1.00;;;;;;5038022;28;20467;-62
2022/11/15 08:56:51;;;;;;;5.13;4.33;;;12.60;1.00;;;;;;5043555;28;20486;-62
2022/11/15 08:59:19;;;;;;;4.67;2.80;;;12.50;1.00;;;;;;5056164;28;20754;-62
2022/11/15 09:01:46;;;;;;;4.00;3.60;;;12.50;1.00;;;;;;5044667;28;20473;-62
2022/11/15 09:04:13;;;;;;;5.80;5.30;;;12.40;1.00;;;;;;5049712;28;20520;-61
2022/11/15 09:06:44;;;;;;;5.40;4.63;;;12.50;1.00;;;;;;5056113;28;20465;-62
2022/11/15 09:09:11;;;;;;;4.13;3.50;;;12.50;1.00;;;;;;5056075;28;20967;-62
2022/11/15 09:11:41;;;;;;;4.50;3.80;;;12.60;1.00;;;;;;5057287;28;20466;-62
2022/11/15 09:14:09;;;;;;;4.60;4.10;;;12.70;1.00;;;;;;5048370;28;20463;-62
2022/11/15 09:16:36;;;;;;;5.37;3.90;;;12.70;1.00;;;;;;5036319;28;20773;-62
2022/11/15 09:19:06;;;;;;;9.60;6.00;;;12.70;1.00;;;;;;5036114;28;20830;-61
2022/11/15 09:21:36;;;;;;;7.00;5.40;;;12.70;1.00;;;;;;5037495;28;20553;-61
2022/11/15 09:24:05;;;;;;;6.43;4.93;;;12.80;1.00;;;;;;5039776;28;20948;-61
2022/11/15 09:26:34;;;;;;;9.43;5.00;;;12.80;1.00;;;;;;5056211;28;20740;-60
2022/11/15 09:29:02;;;;;;;5.10;3.23;;;13.00;1.00;;;;;;5056595;28;20472;-62
2022/11/15 09:31:30;;;;;;;7.77;3.97;;;13.00;1.00;;;;;;5058096;28;21021;-60
2022/11/15 09:34:02;;;;;;;3.50;3.13;;;13.10;1.00;;;;;;5057981;28;20891;-61
2022/11/15 09:36:33;;;;;;;4.77;3.70;;;13.10;99.90;;;;;;5052075;28;20549;-62
2022/11/15 09:39:01;;;;;;;2.93;2.70;;;13.10;99.90;;;;;;5045355;28;20455;-61
2022/11/15 09:41:52;;;;;;;3.60;2.30;;;13.00;99.90;;;;;;5064960;28;20489;-62
2022/11/15 09:44:39;;;;;;;3.60;2.50;;;12.90;99.90;;;;;;5035892;28;20449;-62
2022/11/15 09:47:26;;;;;;;3.13;2.20;;;12.90;99.90;;;;;;5063564;28;20442;-61
2022/11/15 09:49:54;;;;;;;4.30;2.90;;;12.90;99.90;;;;;;5060334;28;20494;-62
2022/11/15 09:52:22;;;;;;;2.77;2.30;;;12.80;99.90;;;;;;5065308;28;20945;-62
2022/11/15 09:54:52;;;;;;;2.90;2.40;;;12.90;99.90;;;;;;5074149;28;20462;-61
2022/11/15 09:57:25;;;;;;;3.90;2.90;;;13.20;99.90;;;;;;5056794;28;20783;-61
2022/11/15 10:00:10;;;;;;;3.97;3.07;;;13.40;99.90;;;;;;5052618;28;20471;-62
2022/11/15 10:02:56;;;;;;;4.27;2.50;;;13.40;99.90;;;;;;5037988;28;20838;-62
2022/11/15 10:05:25;;;;;;;5.07;2.60;;;13.20;99.90;;;;;;5036127;28;20470;-61
2022/11/15 10:07:58;;;;;;;3.47;2.90;;;13.20;99.90;;;;;;5055663;28;20454;-61
2022/11/15 10:10:37;;;;;;;2.53;2.23;;;13.30;99.90;;;;;;5057980;28;20505;-61
2022/11/15 10:13:10;;;;;;;4.27;2.70;;;13.40;99.90;;;;;;5057290;28;20921;-61
2022/11/15 10:15:37;;;;;;;3.80;2.20;;;13.40;99.90;;;;;;5057570;28;20813;-62
2022/11/15 10:18:18;;;;;;;3.47;2.30;;;13.40;99.90;;;;;;5038538;28;20508;-60
2022/11/15 10:20:51;;;;;;;2.40;2.03;;;13.30;99.90;;;;;;5038826;28;20742;-61
2022/11/15 10:23:20;;;;;;;2.60;2.23;;;13.50;99.90;;;;;;5037867;28;20465;-61
2022/11/15 10:25:48;;;;;;;2.60;1.83;;;13.60;99.90;;;;;;5037313;28;20470;-60
2022/11/15 10:28:22;;;;;;;3.63;2.70;;;13.70;99.90;;;;;;5054432;28;20458;-61
2022/11/15 10:30:51;;;;;;;3.53;2.30;;;13.80;99.90;;;;;;5050308;28;20463;-61
2022/11/15 10:33:34;;;;;;;2.50;2.30;;;13.90;99.90;;;;;;5041006;28;20557;-58
2022/11/15 10:36:20;;;;;;;3.13;2.17;;;13.90;99.90;;;;;;5040589;28;20530;-61
2022/11/15 10:38:58;;;;;;;2.90;2.00;;;13.90;99.90;;;;;;5048883;28;20518;-61
2022/11/15 10:41:39;;;;;;;5.33;2.43;;;13.90;99.90;;;;;;5068719;28;20464;-61
2022/11/15 10:44:26;;;;;;;2.50;1.97;;;14.20;99.90;;;;;;5067598;28;20466;-62
2022/11/15 10:47:23;;;;;;;2.97;2.30;;;14.30;99.90;;;;;;5064351;28;20457;-62
2022/11/15 10:50:02;;;;;;;3.80;2.10;;;14.20;99.90;;;;;;5019957;28;20465;-60
2022/11/15 10:52:32;;;;;;;3.70;1.87;;;14.30;99.90;;;;;;5060556;28;20457;-63
2022/11/15 10:55:06;;;;;;;3.93;2.50;;;14.50;99.90;;;;;;5066562;28;20454;-61
2022/11/15 10:57:39;;;;;;;3.80;1.97;;;14.60;99.90;;;;;;5068674;28;21032;-58
2022/11/15 11:00:29;;;;;;;4.00;2.10;;;14.80;99.90;;;;;;5065491;28;20548;-61
2022/11/15 11:03:03;;;;;;;2.20;1.90;;;14.90;99.90;;;;;;5068835;28;20556;-62
2022/11/15 11:05:34;;;;;;;2.90;2.13;;;15.00;99.90;;;;;;5068525;28;20647;-57
2022/11/15 11:08:07;;;;;;;2.90;2.30;;;15.20;99.90;;;;;;5068377;28;20881;-62
2022/11/15 11:10:52;;;;;;;4.00;2.30;;;15.00;99.90;;;;;;5062643;28;20897;-62
2022/11/15 11:13:24;;;;;;;2.23;1.87;;;14.90;99.90;;;;;;5065476;28;20460;-63
2022/11/15 11:16:00;;;;;;;4.60;2.17;;;14.90;99.90;;;;;;5062009;28;20513;-62
2022/11/15 11:18:35;;;;;;;5.60;2.60;;;14.80;99.90;;;;;;5062221;28;20486;-62
2022/11/15 11:21:09;;;;;;;2.73;1.90;;;14.90;99.90;;;;;;5071272;28;20526;-62
2022/11/15 11:23:49;;;;;;;2.80;2.40;;;14.80;99.90;;;;;;5071671;28;20801;-62
2022/11/15 11:26:38;;;;;;;3.13;1.90;;;15.20;99.90;;;;;;5070064;28;20875;-61
2022/11/15 11:29:21;;;;;;;5.20;1.80;;;15.50;99.90;;;;;;5067130;28;20541;-61
2022/11/15 11:32:00;;;;;;;2.63;2.03;;;15.80;99.90;;;;;;5067217;28;20469;-62
2022/11/15 11:34:46;;;;;;;3.40;1.90;;;15.90;99.90;;;;;;5064303;28;20439;-62
2022/11/15 11:37:21;;;;;;;4.70;3.00;;;15.70;99.90;;;;;;5060437;28;20493;-61
2022/11/15 11:40:02;;;;;;;2.50;2.10;;;15.80;99.90;;;;;;5068656;28;20503;-60
2022/11/15 11:42:38;;;;;;;3.30;2.07;;;15.60;99.90;;;;;;5066459;28;20765;-60
2022/11/15 11:45:19;;;;;;;4.00;2.60;;;15.50;99.90;;;;;;5065519;28;20471;-62
2022/11/15 11:47:59;;;;;;;2.07;1.60;;;15.40;99.90;;;;;;5061715;28;20458;-61
2022/11/15 11:50:28;;;;;;;2.17;1.70;;;15.50;99.90;;;;;;5068981;28;20458;-62
2022/11/15 11:53:00;;;;;;;2.40;1.90;;;15.50;99.90;;;;;;5064093;28;20544;-61
2022/11/15 11:55:32;;;;;;;2.67;2.10;;;15.70;99.90;;;;;;5064627;28;20772;-62
2022/11/15 11:58:06;;;;;;;2.10;1.80;;;15.90;99.90;;;;;;5067918;28;20876;-62
2022/11/15 12:00:49;;;;;;;2.20;1.80;;;15.80;99.90;;;;;;5063549;28;20504;-61
2022/11/15 12:03:25;;;;;;;3.10;1.97;;;15.60;99.90;;;;;;5055425;28;20652;-61
2022/11/15 12:05:57;;;;;;;2.53;1.97;;;15.80;99.90;;;;;;5061993;28;20459;-62
2022/11/15 12:08:32;;;;;;;1.83;1.63;;;15.80;99.90;;;;;;5061171;28;20457;-61
2022/11/15 12:11:13;;;;;;;3.30;2.57;;;15.60;99.90;;;;;;5057775;28;20466;-62
2022/11/15 12:13:41;;;;;;;3.37;2.07;;;15.40;99.90;;;;;;5058014;28;20828;-61
2022/11/15 12:16:19;;;;;;;2.27;2.07;;;15.30;99.90;;;;;;5057902;28;20462;-60
2022/11/15 12:18:52;;;;;;;1.90;1.70;;;15.30;99.90;;;;;;5041962;28;20494;-62
2022/11/15 12:21:26;;;;;;;4.63;1.93;;;15.00;99.90;;;;;;5038447;28;20471;-59
2022/11/15 12:24:00;;;;;;;2.30;1.80;;;14.80;99.90;;;;;;5037853;28;20471;-60
2022/11/15 12:26:32;;;;;;;3.63;2.10;;;14.60;99.90;;;;;;5035968;28;20502;-61
2022/11/15 12:29:02;;;;;;;2.00;1.70;;;14.60;99.90;;;;;;5049046;28;20458;-61
2022/11/15 12:31:41;;;;;;;3.53;2.13;;;14.50;99.90;;;;;;5040024;28;20463;-60
2022/11/15 12:34:37;;;;;;;2.23;1.60;;;14.30;99.90;;;;;;5038076;28;20467;-61
2022/11/15 12:37:57;;;;;;;3.00;1.87;;;14.10;99.90;;;;;;5037489;28;20488;-59
2022/11/15 12:40:30;;;;;;;4.10;2.20;;;14.20;99.90;;;;;;5041106;28;20450;-61
2022/11/15 12:43:36;;;;;;;2.07;1.87;;;14.30;99.90;;;;;;5056753;28;20476;-61
2022/11/15 12:46:06;;;;;;;2.13;1.70;;;14.50;99.90;;;;;;5056869;28;20458;-61
2022/11/15 12:48:58;;;;;;;3.07;1.50;;;14.50;99.90;;;;;;5057836;28;20553;-62
2022/11/15 12:52:08;;;;;;;5.40;2.20;;;14.40;99.90;;;;;;5048463;28;20456;-61
2022/11/15 12:54:56;;;;;;;2.07;1.73;;;14.40;99.90;;;;;;5038720;28;20469;-61
2022/11/15 12:57:42;;;;;;;6.30;2.10;;;14.50;99.90;;;;;;5036501;28;20457;-61
2022/11/15 13:00:47;;;;;;;6.63;1.70;;;14.40;99.90;;;;;;5037450;28;20484;-61
2022/11/15 13:03:28;;;;;;;2.83;1.60;;;14.50;99.90;;;;;;5053545;28;20916;-61
2022/11/15 13:06:10;;;;;;;4.53;2.37;;;14.40;99.90;;;;;;5056388;28;20899;-59
2022/11/15 13:08:48;;;;;;;3.70;2.17;;;14.30;99.90;;;;;;5057699;28;20454;-62
2022/11/15 13:11:49;;;;;;;3.40;1.80;;;14.20;99.90;;;;;;5055467;28;20461;-61
2022/11/15 13:14:49;;;;;;;3.17;1.80;;;14.10;99.90;;;;;;5045367;28;20462;-61
2022/11/15 13:17:43;;;;;;;2.83;2.40;;;13.90;99.90;;;;;;5057267;28;20458;-62
2022/11/15 13:20:23;;;;;;;3.37;2.20;;;13.80;99.90;;;;;;5040231;28;20895;-62
2022/11/15 13:22:54;;;;;;;3.07;1.90;;;13.80;99.90;;;;;;5047917;28;20450;-62
2022/11/15 13:25:54;;;;;;;3.27;1.77;;;13.80;99.90;;;;;;5043458;28;20453;-61
2022/11/15 13:28:33;;;;;;;2.33;1.70;;;13.70;99.90;;;;;;5065145;28;20450;-61
2022/11/15 13:31:03;;;;;;;2.77;2.10;;;13.50;99.90;;;;;;5077143;28;20456;-60